createdAt,value
2018-10-09T00:02:18.858Z,101070.42
2018-10-09T00:04:48.106Z,101077.03
2018-10-09T00:07:17.008Z,101069.84
2018-10-09T00:09:45.890Z,101066.66
2018-10-09T00:12:15.085Z,101063.44
2018-10-09T00:14:43.928Z,101059.25
2018-10-09T00:17:12.783Z,101066.44
2018-10-09T00:19:41.998Z,101061.36
2018-10-09T00:22:10.873Z,101061.06
2018-10-09T00:24:39.714Z,101055.30
2018-10-09T00:27:09.024Z,101055.02
2018-10-09T00:29:37.881Z,101053.05
2018-10-09T00:32:06.946Z,101059.84
2018-10-09T00:34:36.322Z,101056.83
2018-10-09T00:37:05.290Z,101057.76
2018-10-09T00:39:34.218Z,101055.68
2018-10-09T00:42:04.082Z,101055.39
2018-10-09T00:44:32.968Z,101057.57
2018-10-09T00:47:01.878Z,101057.28
2018-10-09T00:49:31.174Z,101057.39
2018-10-09T00:52:00.075Z,101054.91
2018-10-09T00:54:28.999Z,101056.23
2018-10-09T00:56:58.293Z,101050.58
2018-10-09T00:59:27.285Z,101045.19
2018-10-09T01:01:56.137Z,101045.27
2018-10-09T01:04:25.357Z,101051.23
2018-10-09T01:06:54.253Z,101054.45
2018-10-09T01:09:23.299Z,101052.73
2018-10-09T01:11:52.152Z,101045.27
2018-10-09T01:14:21.016Z,101049.98
2018-10-09T01:16:50.143Z,101051.11
2018-10-09T01:19:18.965Z,101059.16
2018-10-09T01:21:47.885Z,101067.47
2018-10-09T01:24:16.826Z,101073.15
2018-10-09T01:26:45.720Z,101071.44
2018-10-09T01:29:15.517Z,101069.26
2018-10-09T01:31:44.417Z,101066.05
2018-10-09T01:34:13.453Z,101066.16
2018-10-09T01:36:42.672Z,101075.38
2018-10-09T01:39:11.588Z,101073.56
2018-10-09T01:41:40.444Z,101083.48
2018-10-09T01:44:09.752Z,101090.66
2018-10-09T01:46:38.679Z,101097.83
2018-10-09T01:49:07.561Z,101093.40
2018-10-09T01:51:36.914Z,101087.05
2018-10-09T01:54:06.409Z,101089.70
2018-10-09T01:56:35.652Z,101094.22
2018-10-09T01:59:05.036Z,101086.26
2018-10-09T02:01:34.027Z,101084.94
2018-10-09T02:04:03.568Z,101088.59
2018-10-09T02:06:32.784Z,101087.21
2018-10-09T02:09:02.092Z,101084.73
2018-10-09T02:11:31.636Z,101086.38
2018-10-09T02:14:00.764Z,101085.16
2018-10-09T02:16:29.654Z,101087.30
2018-10-09T02:18:58.529Z,101082.58
2018-10-09T02:21:27.700Z,101087.03
2018-10-09T02:23:56.869Z,101086.90
2018-10-09T02:26:25.735Z,101085.02
2018-10-09T02:28:55.010Z,101088.31
2018-10-09T02:31:23.865Z,101093.70
2018-10-09T02:33:52.713Z,101093.60
2018-10-09T02:36:23.054Z,101092.84
2018-10-09T02:38:52.001Z,101092.73
2018-10-09T02:41:20.859Z,101093.81
2018-10-09T02:43:50.000Z,101087.40
2018-10-09T02:46:18.909Z,101089.58
2018-10-09T02:48:47.805Z,101087.77
2018-10-09T02:51:17.046Z,101087.19
2018-10-09T02:53:45.946Z,101093.12
2018-10-09T02:56:14.808Z,101092.52
2018-10-09T02:58:43.985Z,101095.63
2018-10-09T03:01:12.820Z,101091.08
2018-10-09T03:03:41.701Z,101087.95
2018-10-09T03:06:10.836Z,101085.41
2018-10-09T03:08:39.779Z,101083.63
2018-10-09T03:11:08.585Z,101078.13
2018-10-09T03:13:37.945Z,101077.36
2018-10-09T03:16:06.789Z,101081.69
2018-10-09T03:18:35.647Z,101074.11
2018-10-09T03:21:05.019Z,101073.69
2018-10-09T03:23:34.150Z,101069.98
2018-10-09T03:26:04.938Z,101069.00
2018-10-09T03:28:34.229Z,101065.25
2018-10-09T03:31:03.165Z,101070.99
2018-10-09T03:33:32.036Z,101061.39
2018-10-09T03:36:01.280Z,101062.80
2018-10-09T03:38:30.713Z,101059.55
2018-10-09T03:40:59.654Z,101054.73
2018-10-09T03:43:28.864Z,101059.55
2018-10-09T03:45:57.694Z,101068.02
2018-10-09T03:48:26.555Z,101058.38
2018-10-09T03:50:55.896Z,101058.11
2018-10-09T03:53:24.852Z,101059.21
2018-10-09T03:55:53.717Z,101061.14
2018-10-09T03:58:22.939Z,101061.39
2018-10-09T04:00:51.854Z,101064.73
2018-10-09T04:03:20.765Z,101070.47
2018-10-09T04:05:50.032Z,101078.48
2018-10-09T04:08:18.878Z,101067.92
2018-10-09T04:10:47.728Z,101066.97
2018-10-09T04:15:47.103Z,101075.66
2018-10-09T04:18:16.021Z,101080.94
2018-10-09T04:20:45.242Z,101079.92
2018-10-09T04:23:14.145Z,101081.43
2018-10-09T04:25:43.022Z,101087.27
2018-10-09T04:28:12.326Z,101082.91
2018-10-09T04:30:41.162Z,101086.22
2018-10-09T04:33:10.041Z,101094.23
2018-10-09T04:35:39.312Z,101099.97
2018-10-09T04:38:08.125Z,101104.11
2018-10-09T04:40:36.977Z,101115.12
2018-10-09T04:43:06.255Z,101111.25
2018-10-09T04:45:35.238Z,101108.39
2018-10-09T04:48:04.953Z,101118.55
2018-10-09T04:50:34.213Z,101121.73
2018-10-09T04:53:03.176Z,101115.83
2018-10-09T04:55:32.020Z,101115.12
2018-10-09T04:58:03.749Z,101119.25
2018-10-09T05:00:32.676Z,101124.36
2018-10-09T05:03:01.547Z,101113.89
2018-10-09T05:05:30.443Z,101121.95
2018-10-09T05:07:59.332Z,101114.89
2018-10-09T05:10:28.221Z,101116.30
2018-10-09T05:12:57.541Z,101119.09
2018-10-09T05:15:27.437Z,101116.23
2018-10-09T05:17:56.311Z,101109.81
2018-10-09T05:20:25.273Z,101109.04
2018-10-09T05:22:54.402Z,101105.14
2018-10-09T05:25:23.643Z,101104.37
2018-10-09T05:27:52.583Z,101107.49
2018-10-09T05:30:21.449Z,101113.54
2018-10-09T05:32:50.421Z,101108.64
2018-10-09T05:35:20.038Z,101113.59
2018-10-09T05:37:49.525Z,101112.91
2018-10-09T05:40:18.236Z,101112.83
2018-10-09T05:42:47.161Z,101113.05
2018-10-09T05:47:39.759Z,101106.09
2018-10-09T05:50:10.963Z,101104.23
2018-10-09T05:52:39.986Z,101105.23
2018-10-09T05:55:09.366Z,101100.13
2018-10-09T05:57:38.564Z,101092.77
2018-10-09T06:00:08.705Z,101087.86
2018-10-09T06:02:37.589Z,101093.59
2018-10-09T06:05:07.025Z,101106.23
2018-10-09T06:07:36.649Z,101100.81
2018-10-09T06:10:07.730Z,101096.77
2018-10-09T06:12:36.905Z,101101.03
2018-10-09T06:15:06.603Z,101095.34
2018-10-09T06:17:35.472Z,101099.70
2018-10-09T06:20:06.025Z,101098.44
2018-10-09T06:22:34.908Z,101099.16
2018-10-09T06:25:03.978Z,101097.52
2018-10-09T06:27:33.204Z,101099.30
2018-10-09T06:30:04.322Z,101098.98
2018-10-09T06:32:33.403Z,101103.70
2018-10-09T06:35:04.190Z,101106.44
2018-10-09T06:37:33.372Z,101106.66
2018-10-09T06:40:03.782Z,101105.19
2018-10-09T06:42:33.010Z,101109.09
2018-10-09T06:45:02.086Z,101113.36
2018-10-09T06:47:30.998Z,101114.67
2018-10-09T06:50:00.399Z,101119.16
2018-10-09T06:52:29.306Z,101117.28
2018-10-09T06:54:58.245Z,101131.56
2018-10-09T06:57:27.601Z,101138.69
2018-10-09T06:59:57.351Z,101142.28
2018-10-09T07:02:26.815Z,101147.56
2018-10-09T07:04:57.173Z,101152.78
2018-10-09T07:07:26.107Z,101151.06
2018-10-09T07:09:55.058Z,101164.64
2018-10-09T07:12:24.433Z,101167.38
2018-10-09T07:14:53.508Z,101165.25
2018-10-09T07:17:22.590Z,101171.34
2018-10-09T07:19:51.873Z,101173.95
2018-10-09T07:22:20.848Z,101175.51
2018-10-09T07:24:49.724Z,101179.83
2018-10-09T07:27:18.904Z,101179.95
2018-10-09T07:29:47.795Z,101177.70
2018-10-09T07:32:16.706Z,101181.08
2018-10-09T07:34:45.885Z,101185.59
2018-10-09T07:37:14.818Z,101186.77
2018-10-09T07:39:43.716Z,101188.74
2018-10-09T07:42:12.971Z,101187.89
2018-10-09T07:44:41.944Z,101185.13
2018-10-09T07:47:10.817Z,101190.02
2018-10-09T07:49:41.161Z,101198.14
2018-10-09T07:52:10.085Z,101197.23
2018-10-09T07:54:38.980Z,101197.30
2018-10-09T07:57:08.377Z,101200.13
2018-10-09T07:59:37.709Z,101197.20
2018-10-09T08:02:06.707Z,101196.20
2018-10-09T08:04:35.893Z,101204.98
2018-10-09T08:07:04.992Z,101201.04
2018-10-09T08:11:56.958Z,101204.42
2018-10-09T08:14:25.969Z,101202.64
2018-10-09T08:16:54.869Z,101210.03
2018-10-09T08:19:24.377Z,101205.55
2018-10-09T08:21:53.361Z,101211.25
2018-10-09T08:24:22.295Z,101219.89
2018-10-09T08:26:51.708Z,101223.45
2018-10-09T08:29:20.647Z,101219.16
2018-10-09T08:31:49.511Z,101220.04
2018-10-09T08:37:21.502Z,101208.16
2018-10-09T08:39:50.487Z,101209.23
2018-10-09T08:44:59.201Z,101213.53
2018-10-09T08:47:28.140Z,101208.47
2018-10-09T08:49:56.975Z,101201.81
2018-10-09T08:52:25.820Z,101198.45
2018-10-09T08:54:57.749Z,101203.44
2018-10-09T08:57:26.989Z,101203.91
2018-10-09T08:59:56.059Z,101197.27
2018-10-09T09:02:25.014Z,101199.71
2018-10-09T09:04:53.868Z,101196.45
2018-10-09T09:07:27.361Z,101198.11
2018-10-09T09:09:56.649Z,101200.41
2018-10-09T09:12:25.512Z,101192.09
2018-10-09T09:14:55.456Z,101197.62
2018-10-09T09:17:25.290Z,101190.33
2018-10-09T09:19:54.178Z,101187.95
2018-10-09T09:22:27.907Z,101191.39
2018-10-09T09:24:57.028Z,101198.11
2018-10-09T09:27:25.969Z,101197.83
2018-10-09T09:29:54.796Z,101198.58
2018-10-09T09:32:24.055Z,101195.91
2018-10-09T09:34:52.964Z,101195.56
2018-10-09T09:37:21.797Z,101198.15
2018-10-09T09:39:57.930Z,101196.61
2018-10-09T09:42:26.745Z,101192.59
2018-10-09T09:44:55.775Z,101187.13
2018-10-09T09:47:24.626Z,101188.17
2018-10-09T09:49:53.456Z,101184.41
2018-10-09T09:52:22.671Z,101188.02
2018-10-09T09:54:51.463Z,101192.64
2018-10-09T09:57:20.307Z,101178.73
2018-10-09T09:59:49.383Z,101186.44
2018-10-09T10:02:18.204Z,101190.33
2018-10-09T10:04:47.069Z,101182.44
2018-10-09T10:07:16.198Z,101181.19
2018-10-09T10:09:46.596Z,101184.12
2018-10-09T10:13:17.645Z,101182.93
2018-10-09T10:15:46.562Z,101175.27
2018-10-09T10:18:15.616Z,101170.88
2018-10-09T10:20:44.584Z,101170.20
2018-10-09T10:23:13.448Z,101157.52
2018-10-09T10:25:42.735Z,101161.45
2018-10-09T10:28:14.945Z,101151.89
2018-10-09T10:30:43.796Z,101159.76
2018-10-09T10:33:14.115Z,101149.79
2018-10-09T10:35:48.380Z,101152.92
2018-10-09T10:38:17.132Z,101152.75
2018-10-09T10:40:45.903Z,101146.00
2018-10-09T10:43:14.744Z,101146.55
2018-10-09T10:45:43.861Z,101147.86
2018-10-09T10:48:13.592Z,101148.38
2018-10-09T10:50:42.425Z,101146.91
2018-10-09T10:53:11.305Z,101152.11
2018-10-09T10:55:40.169Z,101139.86
2018-10-09T10:58:09.506Z,101142.73
2018-10-09T11:00:38.332Z,101135.59
2018-10-09T11:03:07.462Z,101134.67
2018-10-09T11:05:36.513Z,101131.45
2018-10-09T11:08:06.247Z,101127.16
2018-10-09T11:10:36.647Z,101132.64
2018-10-09T11:13:05.685Z,101124.14
2018-10-09T11:15:34.536Z,101120.56
2018-10-09T11:18:04.347Z,101114.98
2018-10-09T11:20:38.633Z,101118.36
2018-10-09T11:23:07.598Z,101122.16
2018-10-09T11:25:36.816Z,101123.29
2018-10-09T11:28:07.167Z,101121.59
2018-10-09T11:30:35.987Z,101115.95
2018-10-09T11:33:05.180Z,101104.28
2018-10-09T11:35:34.008Z,101108.19
2018-10-09T11:38:03.489Z,101098.05
2018-10-09T11:40:35.933Z,101091.77
2018-10-09T11:45:44.798Z,101088.02
2018-10-09T11:48:13.849Z,101082.95
2018-10-09T11:50:44.503Z,101084.60
2018-10-09T11:53:13.670Z,101076.39
2018-10-09T11:55:53.684Z,101081.36
2018-10-09T11:58:22.768Z,101074.50
2018-10-09T12:01:00.960Z,101076.86
2018-10-09T12:03:29.928Z,101071.13
2018-10-09T12:06:05.600Z,101068.47
2018-10-09T12:08:34.723Z,101070.63
2018-10-09T12:11:03.674Z,101064.97
2018-10-09T12:13:32.508Z,101064.09
2018-10-09T12:16:02.532Z,101062.30
2018-10-09T12:18:32.062Z,101055.81
2018-10-09T12:21:05.727Z,101049.00
2018-10-09T12:23:34.835Z,101050.19
2018-10-09T12:26:04.400Z,101041.22
2018-10-09T12:28:33.312Z,101040.87
2018-10-09T12:31:02.589Z,101043.74
2018-10-09T12:33:31.436Z,101041.11
2018-10-09T12:36:00.271Z,101040.61
2018-10-09T12:38:29.479Z,101040.42
2018-10-09T12:40:58.297Z,101039.80
2018-10-09T12:43:27.174Z,101040.95
2018-10-09T12:45:56.315Z,101033.22
2018-10-09T12:48:26.212Z,101030.66
2018-10-09T12:50:55.077Z,101028.16
2018-10-09T12:53:24.668Z,101025.37
2018-10-09T12:58:33.173Z,101012.91
2018-10-09T13:01:02.330Z,101010.88
2018-10-09T13:03:31.173Z,101007.51
2018-10-09T13:06:00.022Z,101008.67
2018-10-09T13:08:30.621Z,101003.31
2018-10-09T13:10:59.476Z,100998.47
2018-10-09T13:16:08.099Z,101005.64
2018-10-09T13:18:43.772Z,101006.34
2018-10-09T13:21:12.769Z,101007.80
2018-10-09T13:23:41.827Z,101008.80
2018-10-09T13:26:10.680Z,101003.31
2018-10-09T13:28:39.576Z,101001.97
2018-10-09T13:31:08.704Z,101003.03
2018-10-09T13:33:38.382Z,101006.10
2018-10-09T13:36:07.354Z,101006.28
2018-10-09T13:38:38.820Z,101011.50
2018-10-09T13:41:08.004Z,100999.22
2018-10-09T13:43:36.902Z,100998.20
2018-10-09T13:46:07.248Z,100994.01
2018-10-09T13:48:36.210Z,100996.91
2018-10-09T13:51:05.137Z,101000.44
2018-10-09T13:53:43.582Z,100999.23
2018-10-09T13:56:12.644Z,100995.90
2018-10-09T13:58:47.833Z,100992.01
2018-10-09T14:01:17.158Z,100994.67
2018-10-09T14:03:46.024Z,100987.90
2018-10-09T14:06:25.567Z,100992.36
2018-10-09T14:08:54.701Z,100988.59
2018-10-09T14:11:27.139Z,100985.42
2018-10-09T14:13:55.960Z,100984.45
2018-10-09T14:16:25.363Z,100982.84
2018-10-09T14:18:54.174Z,100980.88
2018-10-09T14:21:27.490Z,100978.48
2018-10-09T14:24:02.492Z,100978.05
2018-10-09T14:26:31.425Z,100972.09
2018-10-09T14:29:00.356Z,100973.27
2018-10-09T14:31:29.522Z,100974.12
2018-10-09T14:33:58.335Z,100969.25
2018-10-09T14:36:27.164Z,100966.90
2018-10-09T14:38:59.525Z,100963.19
2018-10-09T14:44:08.240Z,100953.42
2018-10-09T14:46:40.416Z,100957.53
2018-10-09T14:49:09.271Z,100959.73
2018-10-09T14:51:38.020Z,100957.79
2018-10-09T14:54:06.858Z,100959.17
2018-10-09T14:56:36.016Z,100953.00
2018-10-09T14:59:04.874Z,100955.02
2018-10-09T15:01:33.726Z,100958.69
2018-10-09T15:04:04.905Z,100959.73
2018-10-09T15:06:33.804Z,100958.43
2018-10-09T15:09:02.773Z,100951.19
2018-10-09T15:11:36.017Z,100948.84
2018-10-09T15:14:05.977Z,100950.58
2018-10-09T15:16:34.899Z,100943.84
2018-10-09T15:19:04.279Z,100943.45
2018-10-09T15:21:33.115Z,100946.80
2018-10-09T15:24:03.175Z,100942.89
2018-10-09T15:26:32.317Z,100947.55
2018-10-09T15:29:04.870Z,100938.33
2018-10-09T15:31:33.661Z,100943.67
2018-10-09T15:34:03.588Z,100946.16
2018-10-09T15:36:38.206Z,100943.05
2018-10-09T15:39:09.330Z,100951.56
2018-10-09T15:41:38.628Z,100953.59
2018-10-09T15:44:07.465Z,100953.78
2018-10-09T15:46:36.327Z,100949.05
2018-10-09T15:49:09.267Z,100949.89
2018-10-09T15:51:38.271Z,100946.63
2018-10-09T15:54:12.950Z,100944.05
2018-10-09T15:56:41.863Z,100940.96
2018-10-09T15:59:10.753Z,100938.31
2018-10-09T16:01:39.856Z,100947.86
2018-10-09T16:04:08.787Z,100950.83
2018-10-09T16:06:37.620Z,100949.75
2018-10-09T16:09:08.860Z,100953.07
2018-10-09T16:11:37.733Z,100958.45
2018-10-09T16:14:06.580Z,100955.13
2018-10-09T16:16:37.418Z,100953.00
2018-10-09T16:19:06.388Z,100957.59
2018-10-09T16:21:35.456Z,100953.47
2018-10-09T16:24:05.479Z,100959.84
2018-10-09T16:26:34.412Z,100961.64
2018-10-09T16:29:03.271Z,100965.90
2018-10-09T16:31:34.143Z,100960.38
2018-10-09T16:34:04.356Z,100960.80
2018-10-09T16:36:33.240Z,100960.11
2018-10-09T16:39:04.290Z,100959.41
2018-10-09T16:41:33.154Z,100958.83
2018-10-09T16:44:02.730Z,100963.95
2018-10-09T16:46:31.897Z,100950.62
2018-10-09T16:49:00.781Z,100953.89
2018-10-09T16:51:33.376Z,100959.71
2018-10-09T16:54:03.233Z,100957.67
2018-10-09T16:56:32.318Z,100962.34
2018-10-09T16:59:01.176Z,100957.54
2018-10-09T17:01:30.361Z,100965.64
2018-10-09T17:03:59.186Z,100968.77
2018-10-09T17:06:28.028Z,100972.52
2018-10-09T17:09:03.206Z,100969.53
2018-10-09T17:11:32.082Z,100977.80
2018-10-09T17:14:00.906Z,100976.45
2018-10-09T17:16:30.080Z,100982.20
2018-10-09T17:18:58.928Z,100986.92
2018-10-09T17:21:28.114Z,100983.83
2018-10-09T17:23:57.217Z,100986.46
2018-10-09T17:26:26.128Z,100984.78
2018-10-09T17:28:57.876Z,100986.46
2018-10-09T17:31:27.132Z,100989.22
2018-10-09T17:33:59.858Z,100992.28
2018-10-09T17:36:28.691Z,100992.42
2018-10-09T17:38:57.844Z,100994.52
2018-10-09T17:41:26.688Z,100989.41
2018-10-09T17:43:55.506Z,100995.52
2018-10-09T17:46:24.752Z,100998.18
2018-10-09T17:48:53.526Z,100996.13
2018-10-09T17:51:22.373Z,101001.09
2018-10-09T17:53:51.589Z,100996.98
2018-10-09T17:56:20.824Z,101006.80
2018-10-09T17:58:49.676Z,100996.89
2018-10-09T18:01:18.805Z,100999.05
2018-10-09T18:03:47.680Z,101000.41
2018-10-09T18:06:27.790Z,101003.33
2018-10-09T18:08:56.765Z,101002.03
2018-10-09T18:11:25.660Z,101000.35
2018-10-09T18:13:54.873Z,100999.02
2018-10-09T18:16:23.768Z,100999.59
2018-10-09T18:18:52.817Z,101004.73
2018-10-09T18:21:22.876Z,101006.92
2018-10-09T18:23:52.189Z,101006.34
2018-10-09T18:26:21.603Z,101015.81
2018-10-09T18:31:48.165Z,101016.02
2018-10-09T18:34:17.245Z,101020.05
2018-10-09T18:36:46.193Z,101010.71
2018-10-09T18:39:20.884Z,101017.03
2018-10-09T18:41:50.135Z,101012.17
2018-10-09T18:44:19.478Z,101008.41
2018-10-09T18:46:48.698Z,101007.34
2018-10-09T18:49:17.590Z,101009.91
2018-10-09T18:51:46.426Z,101008.45
2018-10-09T18:54:15.607Z,101015.02
2018-10-09T18:56:47.981Z,101006.28
2018-10-09T18:59:16.969Z,101006.20
2018-10-09T19:01:46.159Z,101007.77
2018-10-09T19:04:15.190Z,101005.86
2018-10-09T19:06:44.717Z,101009.73
2018-10-09T19:09:14.087Z,101009.48
2018-10-09T19:11:43.214Z,101012.51
2018-10-09T19:14:12.105Z,101014.30
2018-10-09T19:16:41.389Z,101020.36
2018-10-09T19:19:10.179Z,101024.10
2018-10-09T19:21:38.996Z,101025.92
2018-10-09T19:24:08.169Z,101030.01
2018-10-09T19:26:37.451Z,101023.61
2018-10-09T19:29:07.101Z,101029.66
2018-10-09T19:31:36.546Z,101030.61
2018-10-09T19:34:07.283Z,101034.48
2018-10-09T19:36:37.549Z,101032.05
2018-10-09T19:39:09.568Z,101037.97
2018-10-09T19:41:38.984Z,101032.52
2018-10-09T19:44:08.136Z,101028.40
2018-10-09T19:46:37.302Z,101028.52
2018-10-09T19:49:06.165Z,101028.02
2018-10-09T19:51:40.247Z,101024.02
2018-10-09T19:54:09.420Z,101041.40
2018-10-09T19:56:40.036Z,101035.47
2018-10-09T19:59:09.594Z,101036.89
2018-10-09T20:01:38.901Z,101038.09
2018-10-09T20:04:07.802Z,101045.72
2018-10-09T20:06:38.305Z,101043.96
2018-10-09T20:09:12.702Z,101046.23
2018-10-09T20:11:44.917Z,101048.67
2018-10-09T20:14:14.579Z,101047.67
2018-10-09T20:16:43.699Z,101048.62
2018-10-09T20:19:12.956Z,101048.13
2018-10-09T20:21:41.787Z,101048.61
2018-10-09T20:24:12.355Z,101051.60
2018-10-09T20:26:41.556Z,101048.59
2018-10-09T20:29:12.646Z,101045.41
2018-10-09T20:31:41.481Z,101042.02
2018-10-09T20:34:10.604Z,101039.56
2018-10-09T20:36:41.311Z,101041.27
2018-10-09T20:39:10.156Z,101048.38
2018-10-09T20:41:42.941Z,101055.36
2018-10-09T20:44:11.817Z,101054.09
2018-10-09T20:46:40.669Z,101050.34
2018-10-09T20:49:09.795Z,101047.30
2018-10-09T20:51:38.624Z,101044.03
2018-10-09T20:54:09.174Z,101043.41
2018-10-09T20:56:37.984Z,101046.87
2018-10-09T20:59:11.939Z,101052.74
2018-10-09T21:01:41.088Z,101050.09
2018-10-09T21:04:24.021Z,101044.95
2018-10-09T21:06:53.165Z,101051.44
2018-10-09T21:11:55.287Z,101051.52
2018-10-09T21:14:24.402Z,101050.02
2018-10-09T21:16:53.212Z,101046.27
2018-10-09T21:19:28.194Z,101048.30
2018-10-09T21:21:57.065Z,101041.16
2018-10-09T21:24:29.608Z,101039.36
2018-10-09T21:26:58.733Z,101035.34
2018-10-09T21:29:27.569Z,101044.84
2018-10-09T21:31:59.059Z,101041.32
2018-10-09T21:34:28.229Z,101043.47
2018-10-09T21:37:02.472Z,101039.02
2018-10-09T21:39:31.301Z,101034.17
2018-10-09T21:42:00.444Z,101037.42
2018-10-09T21:44:31.971Z,101040.66
2018-10-09T21:47:02.608Z,101034.81
2018-10-09T21:49:31.707Z,101030.98
2018-10-09T21:52:00.949Z,101033.22
2018-10-09T21:54:29.859Z,101033.05
2018-10-09T21:57:04.128Z,101035.20
2018-10-09T21:59:32.938Z,101032.43
2018-10-09T22:02:04.061Z,101028.77
2018-10-09T22:04:33.182Z,101034.81
2018-10-09T22:07:06.604Z,101037.58
2018-10-09T22:09:35.451Z,101039.38
2018-10-09T22:12:07.699Z,101034.66
2018-10-09T22:14:36.596Z,101034.45
2018-10-09T22:17:05.834Z,101033.63
2018-10-09T22:19:34.797Z,101029.40
2018-10-09T22:24:44.693Z,101026.89
2018-10-09T22:27:13.734Z,101025.17
2018-10-09T22:29:45.556Z,101030.17
2018-10-09T22:32:14.816Z,101032.94
2018-10-09T22:34:43.600Z,101025.06
2018-10-09T22:37:12.590Z,101028.95
2018-10-09T22:39:41.941Z,101029.84
2018-10-09T22:42:16.841Z,101030.14
2018-10-09T22:44:45.696Z,101029.98
2018-10-09T22:47:14.999Z,101025.95
2018-10-09T22:49:43.804Z,101024.51
2018-10-09T22:52:17.944Z,101023.30
2018-10-09T22:54:46.775Z,101026.47
2018-10-09T22:57:18.796Z,101020.47
2018-10-09T22:59:48.269Z,101027.40
2018-10-09T23:02:18.762Z,101025.14
2018-10-09T23:04:47.660Z,101022.40
2018-10-09T23:07:16.896Z,101020.55
2018-10-09T23:09:45.724Z,101023.03
2018-10-09T23:12:16.104Z,101019.80
2018-10-09T23:14:45.326Z,101016.29
2018-10-09T23:17:14.153Z,101015.16
2018-10-09T23:19:42.986Z,101018.20
2018-10-09T23:22:13.078Z,101012.05
2018-10-09T23:24:41.874Z,101014.75
2018-10-09T23:27:10.670Z,101019.19
2018-10-09T23:29:54.206Z,101019.58
2018-10-09T23:32:28.970Z,101011.41
2018-10-09T23:34:58.075Z,101013.90
2018-10-09T23:37:26.900Z,101020.00
2018-10-09T23:39:55.723Z,101016.77
2018-10-09T23:42:24.900Z,101018.95
2018-10-09T23:44:53.695Z,101013.84
2018-10-09T23:47:22.491Z,101017.28
2018-10-09T23:49:51.617Z,101013.02
2018-10-09T23:52:20.541Z,101013.70
2018-10-09T23:54:49.396Z,101009.34
2018-10-09T23:57:18.555Z,101006.22
2018-10-09T23:59:48.943Z,101000.93
